createdAt,value
2018-12-22T00:00:12.587Z,2.00
2018-12-22T00:00:43.691Z,2.02
2018-12-22T00:01:14.847Z,2.02
2018-12-22T00:01:45.962Z,2.00
2018-12-22T00:03:06.853Z,1.99
2018-12-22T00:03:37.959Z,2.00
2018-12-22T00:04:09.064Z,1.99
2018-12-22T00:04:40.178Z,2.00
2018-12-22T00:05:11.353Z,2.02
2018-12-22T00:05:42.465Z,2.03
2018-12-22T00:06:13.589Z,2.03
2018-12-22T00:06:44.732Z,1.97
2018-12-22T00:07:15.840Z,1.61
2018-12-22T00:07:46.953Z,1.88
2018-12-22T00:08:18.064Z,1.84
2018-12-22T00:08:49.213Z,1.83
2018-12-22T00:09:20.322Z,1.83
2018-12-22T00:09:51.683Z,1.83
2018-12-22T00:10:22.832Z,1.84
2018-12-22T00:10:53.948Z,1.80
2018-12-22T00:11:25.055Z,1.78
2018-12-22T00:11:56.166Z,1.77
2018-12-22T00:12:27.265Z,1.79
2018-12-22T00:12:58.381Z,1.80
2018-12-22T00:13:29.547Z,1.82
2018-12-22T00:14:00.673Z,1.82
2018-12-22T00:14:31.780Z,1.80
2018-12-22T00:15:02.895Z,1.81
2018-12-22T00:15:34.012Z,1.82
2018-12-22T00:16:05.130Z,1.85
2018-12-22T00:16:36.258Z,1.86
2018-12-22T00:17:07.380Z,1.85
2018-12-22T00:17:38.505Z,1.84
2018-12-22T00:18:09.616Z,1.84
2018-12-22T00:18:40.787Z,1.85
2018-12-22T00:19:11.913Z,1.83
2018-12-22T00:19:43.014Z,1.81
2018-12-22T00:20:14.134Z,1.80
2018-12-22T00:20:45.263Z,1.81
2018-12-22T00:21:16.377Z,1.81
2018-12-22T00:21:47.490Z,1.82
2018-12-22T00:22:18.639Z,1.85
2018-12-22T00:22:49.773Z,1.92
2018-12-22T00:23:20.917Z,1.99
2018-12-22T00:23:52.048Z,2.04
2018-12-22T00:24:23.156Z,2.06
2018-12-22T00:24:54.260Z,2.06
2018-12-22T00:25:25.382Z,2.01
2018-12-22T00:25:56.537Z,1.96
2018-12-22T00:26:27.747Z,1.94
2018-12-22T00:26:58.880Z,1.92
2018-12-22T00:27:30.010Z,1.90
2018-12-22T00:28:01.212Z,1.91
2018-12-22T00:28:32.323Z,1.91
2018-12-22T00:29:03.448Z,1.91
2018-12-22T00:29:34.578Z,1.86
2018-12-22T00:30:05.712Z,1.87
2018-12-22T00:30:36.836Z,1.87
2018-12-22T00:31:07.963Z,1.89
2018-12-22T00:31:39.083Z,1.89
2018-12-22T00:32:10.196Z,1.90
2018-12-22T00:32:41.312Z,1.93
2018-12-22T00:33:12.473Z,1.93
2018-12-22T00:33:43.618Z,1.95
2018-12-22T00:34:14.734Z,1.95
2018-12-22T00:34:45.889Z,1.95
2018-12-22T00:35:17.002Z,1.95
2018-12-22T00:35:48.105Z,1.94
2018-12-22T00:36:19.249Z,1.94
2018-12-22T00:36:50.355Z,1.93
2018-12-22T00:37:21.475Z,1.91
2018-12-22T00:37:52.601Z,1.89
2018-12-22T00:38:23.705Z,1.86
2018-12-22T00:38:55.456Z,1.84
2018-12-22T00:39:26.637Z,1.83
2018-12-22T00:39:57.889Z,1.82
2018-12-22T00:40:29.007Z,1.81
2018-12-22T00:41:00.128Z,1.81
2018-12-22T00:41:31.278Z,1.78
2018-12-22T00:42:02.387Z,1.76
2018-12-22T00:42:33.524Z,1.76
2018-12-22T00:43:04.647Z,1.73
2018-12-22T00:43:35.756Z,1.72
2018-12-22T00:44:06.869Z,1.67
2018-12-22T00:44:37.977Z,1.65
2018-12-22T00:45:09.138Z,1.63
2018-12-22T00:45:40.249Z,1.59
2018-12-22T00:46:11.370Z,1.56
2018-12-22T00:46:42.480Z,1.54
2018-12-22T00:47:13.598Z,1.52
2018-12-22T00:47:44.695Z,1.51
2018-12-22T00:48:15.818Z,1.46
2018-12-22T00:48:46.924Z,1.51
2018-12-22T00:49:18.031Z,1.54
2018-12-22T00:49:49.564Z,1.57
2018-12-22T00:50:20.704Z,1.59
2018-12-22T00:50:51.861Z,1.58
2018-12-22T00:51:23.093Z,1.62
2018-12-22T00:51:54.203Z,1.63
2018-12-22T00:52:25.315Z,1.56
2018-12-22T00:52:56.429Z,1.52
2018-12-22T00:53:27.540Z,1.53
2018-12-22T00:53:58.653Z,1.63
2018-12-22T00:54:29.764Z,1.81
2018-12-22T00:55:00.882Z,1.96
2018-12-22T00:55:31.991Z,2.04
2018-12-22T00:56:03.137Z,1.99
2018-12-22T00:56:34.251Z,2.00
2018-12-22T00:57:05.362Z,2.04
2018-12-22T00:57:36.472Z,2.02
2018-12-22T00:58:07.656Z,1.90
2018-12-22T00:58:38.773Z,1.83
2018-12-22T00:59:09.880Z,1.79
2018-12-22T00:59:40.991Z,1.77
2018-12-22T01:00:13.776Z,1.73
2018-12-22T01:00:45.048Z,1.73
2018-12-22T01:01:16.200Z,1.73
2018-12-22T01:01:47.327Z,1.75
2018-12-22T01:02:18.474Z,1.77
2018-12-22T01:02:49.616Z,1.79
2018-12-22T01:03:20.736Z,1.81
2018-12-22T01:03:51.844Z,1.83
2018-12-22T01:04:22.959Z,1.83
2018-12-22T01:04:54.073Z,1.85
2018-12-22T01:05:25.191Z,1.83
2018-12-22T01:05:56.312Z,1.83
2018-12-22T01:06:27.423Z,1.85
2018-12-22T01:06:58.573Z,1.85
2018-12-22T01:07:29.682Z,1.84
2018-12-22T01:08:00.798Z,1.82
2018-12-22T01:08:31.913Z,1.82
2018-12-22T01:09:03.023Z,1.81
2018-12-22T01:09:34.140Z,1.79
2018-12-22T01:10:05.300Z,1.79
2018-12-22T01:10:36.423Z,1.77
2018-12-22T01:11:07.578Z,1.74
2018-12-22T01:11:38.698Z,1.70
2018-12-22T01:12:09.808Z,1.67
2018-12-22T01:12:40.961Z,1.66
2018-12-22T01:13:12.068Z,1.65
2018-12-22T01:13:43.188Z,1.64
2018-12-22T01:14:14.309Z,1.61
2018-12-22T01:14:46.240Z,1.59
2018-12-22T01:15:17.351Z,1.57
2018-12-22T01:15:48.460Z,1.56
2018-12-22T01:16:19.610Z,1.56
2018-12-22T01:16:50.725Z,1.57
2018-12-22T01:17:21.842Z,1.57
2018-12-22T01:17:52.949Z,1.57
2018-12-22T01:18:24.103Z,1.58
2018-12-22T01:18:55.210Z,1.59
2018-12-22T01:19:26.326Z,1.57
2018-12-22T01:19:57.436Z,1.61
2018-12-22T01:20:28.540Z,1.59
2018-12-22T01:20:59.653Z,1.57
2018-12-22T01:21:30.767Z,1.55
2018-12-22T01:22:01.885Z,1.60
2018-12-22T01:22:32.987Z,1.66
2018-12-22T01:23:04.151Z,1.67
2018-12-22T01:23:35.305Z,1.66
2018-12-22T01:24:06.416Z,1.64
2018-12-22T01:24:37.524Z,1.62
2018-12-22T01:25:08.624Z,1.63
2018-12-22T01:25:39.742Z,1.59
2018-12-22T01:26:10.845Z,1.56
2018-12-22T01:26:42.041Z,1.60
2018-12-22T01:27:13.149Z,1.62
2018-12-22T01:27:44.282Z,1.63
2018-12-22T01:28:15.439Z,1.58
2018-12-22T01:28:46.548Z,1.59
2018-12-22T01:29:17.661Z,1.55
2018-12-22T01:29:48.788Z,1.54
2018-12-22T01:30:19.900Z,1.55
2018-12-22T01:30:51.012Z,1.58
2018-12-22T01:31:22.158Z,1.63
2018-12-22T01:31:53.272Z,1.61
2018-12-22T01:32:24.386Z,1.68
2018-12-22T01:32:55.501Z,1.73
2018-12-22T01:33:26.661Z,1.79
2018-12-22T01:33:57.773Z,1.82
2018-12-22T01:34:28.958Z,1.83
2018-12-22T01:35:00.185Z,1.85
2018-12-22T01:35:31.295Z,1.85
2018-12-22T01:36:02.410Z,1.84
2018-12-22T01:36:34.153Z,1.82
2018-12-22T01:37:05.301Z,1.78
2018-12-22T01:37:36.420Z,1.79
2018-12-22T01:38:07.529Z,1.81
2018-12-22T01:38:38.649Z,1.83
2018-12-22T01:39:09.752Z,1.83
2018-12-22T01:39:40.852Z,1.83
2018-12-22T01:40:11.973Z,1.84
2018-12-22T01:40:43.090Z,1.86
2018-12-22T01:41:14.212Z,1.88
2018-12-22T01:41:45.354Z,1.89
2018-12-22T01:42:16.513Z,1.87
2018-12-22T01:42:47.630Z,1.83
2018-12-22T01:43:18.739Z,1.84
2018-12-22T01:43:49.845Z,1.86
2018-12-22T01:44:20.987Z,1.86
2018-12-22T01:44:52.121Z,1.86
2018-12-22T01:45:23.247Z,1.86
2018-12-22T01:45:54.360Z,1.86
2018-12-22T01:46:25.493Z,1.88
2018-12-22T01:46:56.600Z,1.90
2018-12-22T01:47:27.733Z,1.91
2018-12-22T01:47:58.837Z,1.92
2018-12-22T01:48:29.957Z,1.93
2018-12-22T01:49:01.109Z,1.93
2018-12-22T01:49:32.212Z,1.90
2018-12-22T01:50:03.320Z,1.86
2018-12-22T01:50:34.433Z,1.83
2018-12-22T01:51:05.540Z,-0.62
2018-12-22T01:51:36.655Z,1.82
2018-12-22T01:52:07.767Z,1.80
2018-12-22T01:52:38.888Z,1.75
2018-12-22T01:53:10.004Z,1.74
2018-12-22T01:53:41.156Z,1.74
2018-12-22T01:54:12.320Z,1.74
2018-12-22T01:54:43.426Z,1.70
2018-12-22T01:55:14.538Z,1.71
2018-12-22T01:55:45.648Z,1.71
2018-12-22T01:56:16.757Z,1.71
2018-12-22T01:56:47.873Z,1.71
2018-12-22T01:57:19.023Z,1.68
2018-12-22T01:57:50.132Z,1.68
2018-12-22T01:58:21.247Z,1.70
2018-12-22T01:58:52.369Z,1.70
2018-12-22T01:59:23.485Z,1.71
2018-12-22T01:59:54.632Z,1.73
2018-12-22T02:00:25.748Z,1.73
2018-12-22T02:00:56.872Z,1.73
2018-12-22T02:01:27.980Z,1.69
2018-12-22T02:01:59.127Z,1.68
2018-12-22T02:02:30.245Z,1.68
2018-12-22T02:03:01.409Z,1.69
2018-12-22T02:03:32.528Z,1.66
2018-12-22T02:04:03.655Z,1.67
2018-12-22T02:04:34.803Z,1.69
2018-12-22T02:05:05.910Z,1.69
2018-12-22T02:05:37.025Z,1.72
2018-12-22T02:06:08.147Z,1.70
2018-12-22T02:06:39.260Z,1.72
2018-12-22T02:07:10.379Z,1.72
2018-12-22T02:07:41.489Z,1.69
2018-12-22T02:08:12.596Z,1.70
2018-12-22T02:08:43.752Z,1.69
2018-12-22T02:09:14.855Z,1.69
2018-12-22T02:09:46.012Z,1.68
2018-12-22T02:10:17.121Z,1.69
2018-12-22T02:10:48.244Z,1.70
2018-12-22T02:11:19.348Z,1.72
2018-12-22T02:11:50.477Z,1.71
2018-12-22T02:12:21.590Z,1.70
2018-12-22T02:12:52.732Z,1.70
2018-12-22T02:13:23.849Z,1.72
2018-12-22T02:13:54.996Z,1.66
2018-12-22T02:14:26.127Z,1.65
2018-12-22T02:14:57.258Z,1.62
2018-12-22T02:15:28.368Z,1.62
2018-12-22T02:15:59.494Z,1.62
2018-12-22T02:16:30.617Z,1.62
2018-12-22T02:17:01.736Z,1.61
2018-12-22T02:17:32.835Z,1.59
2018-12-22T02:18:03.965Z,1.58
2018-12-22T02:18:35.129Z,1.59
2018-12-22T02:19:06.253Z,1.59
2018-12-22T02:19:37.356Z,1.60
2018-12-22T02:20:08.475Z,1.63
2018-12-22T02:20:39.604Z,1.64
2018-12-22T02:21:10.725Z,1.63
2018-12-22T02:21:41.845Z,1.64
2018-12-22T02:22:12.968Z,1.62
2018-12-22T02:22:44.080Z,1.60
2018-12-22T02:23:15.188Z,1.61
2018-12-22T02:23:46.340Z,1.62
2018-12-22T02:24:17.447Z,1.61
2018-12-22T02:24:48.559Z,1.59
2018-12-22T02:25:19.676Z,1.62
2018-12-22T02:25:50.785Z,1.62
2018-12-22T02:26:21.892Z,1.69
2018-12-22T02:26:53.013Z,1.72
2018-12-22T02:27:24.204Z,1.76
2018-12-22T02:27:55.328Z,1.75
2018-12-22T02:28:26.457Z,1.75
2018-12-22T02:28:57.567Z,1.74
2018-12-22T02:29:28.724Z,1.71
2018-12-22T02:30:00.733Z,1.64
2018-12-22T02:30:31.849Z,1.59
2018-12-22T02:31:02.983Z,1.57
2018-12-22T02:31:34.137Z,1.55
2018-12-22T02:32:05.243Z,1.47
2018-12-22T02:32:36.346Z,1.45
2018-12-22T02:33:07.457Z,1.40
2018-12-22T02:33:38.573Z,1.36
2018-12-22T02:34:09.726Z,1.36
2018-12-22T02:34:40.836Z,1.33
2018-12-22T02:35:11.954Z,1.31
2018-12-22T02:35:43.069Z,1.28
2018-12-22T02:36:14.212Z,1.23
2018-12-22T02:36:45.322Z,1.22
2018-12-22T02:37:16.438Z,1.19
2018-12-22T02:37:47.551Z,1.22
2018-12-22T02:38:18.654Z,1.25
2018-12-22T02:38:49.787Z,1.27
2018-12-22T02:39:20.949Z,1.29
2018-12-22T02:39:52.052Z,1.28
2018-12-22T02:40:23.160Z,1.35
2018-12-22T02:40:54.268Z,1.40
2018-12-22T02:41:25.386Z,1.43
2018-12-22T02:41:56.500Z,1.46
2018-12-22T02:42:27.616Z,1.52
2018-12-22T02:42:58.781Z,1.53
2018-12-22T02:43:29.907Z,1.56
2018-12-22T02:44:01.072Z,1.56
2018-12-22T02:44:32.236Z,1.55
2018-12-22T02:45:03.348Z,1.55
2018-12-22T02:45:34.460Z,1.56
2018-12-22T02:46:05.577Z,1.55
2018-12-22T02:46:36.685Z,1.54
2018-12-22T02:47:07.783Z,1.57
2018-12-22T02:47:38.901Z,1.61
2018-12-22T02:48:10.012Z,1.64
2018-12-22T02:48:41.133Z,1.66
2018-12-22T02:49:12.280Z,1.68
2018-12-22T02:49:43.546Z,1.68
2018-12-22T02:50:14.661Z,1.71
2018-12-22T02:50:45.769Z,1.72
2018-12-22T02:51:16.880Z,1.73
2018-12-22T02:51:48.299Z,1.85
2018-12-22T02:52:19.396Z,1.99
2018-12-22T02:52:50.499Z,2.07
2018-12-22T02:53:21.648Z,2.09
2018-12-22T02:53:52.808Z,2.13
2018-12-22T02:54:23.927Z,2.12
2018-12-22T02:54:55.033Z,2.13
2018-12-22T02:55:27.144Z,2.14
2018-12-22T02:55:59.424Z,2.16
2018-12-22T02:56:30.538Z,2.10
2018-12-22T02:57:02.417Z,2.08
2018-12-22T02:57:33.544Z,2.03
2018-12-22T02:58:04.698Z,1.99
2018-12-22T02:58:35.807Z,1.97
2018-12-22T02:59:06.923Z,1.93
2018-12-22T02:59:38.046Z,1.93
2018-12-22T03:00:09.165Z,1.93
2018-12-22T03:00:40.312Z,1.88
2018-12-22T03:01:11.428Z,1.85
2018-12-22T03:01:42.548Z,1.92
2018-12-22T03:02:13.660Z,1.95
2018-12-22T03:02:44.777Z,1.97
2018-12-22T03:03:15.934Z,1.98
2018-12-22T03:03:47.049Z,2.00
2018-12-22T03:04:18.158Z,2.01
2018-12-22T03:04:49.264Z,2.00
2018-12-22T03:05:20.379Z,1.96
2018-12-22T03:05:51.484Z,1.95
2018-12-22T03:06:22.592Z,1.91
2018-12-22T03:06:53.716Z,1.91
2018-12-22T03:07:24.840Z,1.88
2018-12-22T03:07:55.969Z,1.86
2018-12-22T03:08:27.173Z,1.80
2018-12-22T03:08:58.290Z,1.79
2018-12-22T03:09:29.396Z,1.79
2018-12-22T03:10:00.548Z,1.77
2018-12-22T03:10:31.653Z,1.74
2018-12-22T03:11:02.773Z,1.72
2018-12-22T03:11:33.886Z,1.72
2018-12-22T03:12:05.005Z,1.72
2018-12-22T03:12:36.108Z,1.72
2018-12-22T03:13:07.228Z,1.70
2018-12-22T03:13:38.368Z,1.73
2018-12-22T03:14:09.493Z,1.78
2018-12-22T03:14:40.606Z,1.83
2018-12-22T03:15:11.717Z,1.82
2018-12-22T03:15:42.850Z,1.80
2018-12-22T03:16:13.968Z,1.75
2018-12-22T03:16:45.082Z,1.75
2018-12-22T03:17:16.211Z,1.74
2018-12-22T03:17:47.360Z,1.74
2018-12-22T03:18:18.489Z,1.73
2018-12-22T03:18:49.600Z,1.73
2018-12-22T03:19:20.704Z,1.75
2018-12-22T03:19:51.820Z,1.81
2018-12-22T03:20:22.923Z,1.90
2018-12-22T03:20:54.037Z,1.95
2018-12-22T03:21:25.134Z,1.98
2018-12-22T03:21:57.328Z,2.02
2018-12-22T03:22:28.562Z,2.04
2018-12-22T03:22:59.705Z,2.05
2018-12-22T03:23:30.908Z,2.04
2018-12-22T03:24:02.557Z,2.05
2018-12-22T03:24:33.709Z,2.03
2018-12-22T03:25:04.922Z,2.01
2018-12-22T03:25:36.040Z,2.00
2018-12-22T03:26:07.188Z,2.00
2018-12-22T03:26:38.321Z,2.00
2018-12-22T03:27:09.466Z,2.00
2018-12-22T03:27:40.572Z,1.95
2018-12-22T03:28:11.717Z,1.90
2018-12-22T03:28:42.838Z,1.86
2018-12-22T03:29:15.877Z,1.78
2018-12-22T03:29:47.140Z,1.74
2018-12-22T03:30:18.394Z,1.72
2018-12-22T03:30:49.523Z,1.74
2018-12-22T03:31:20.660Z,1.75
2018-12-22T03:31:51.807Z,1.78
2018-12-22T03:32:22.947Z,1.75
2018-12-22T03:32:54.093Z,1.71
2018-12-22T03:33:25.269Z,1.68
2018-12-22T03:33:56.380Z,1.62
2018-12-22T03:34:27.493Z,1.61
2018-12-22T03:34:58.601Z,1.60
2018-12-22T03:35:29.719Z,1.65
2018-12-22T03:36:02.009Z,1.67
2018-12-22T03:36:33.128Z,1.68
2018-12-22T03:37:04.280Z,1.70
2018-12-22T03:37:35.388Z,1.76
2018-12-22T03:38:06.498Z,1.75
2018-12-22T03:38:37.631Z,1.74
2018-12-22T03:39:08.801Z,1.69
2018-12-22T03:39:39.906Z,1.66
2018-12-22T03:40:11.037Z,1.60
2018-12-22T03:40:42.188Z,1.62
2018-12-22T03:41:13.312Z,1.65
2018-12-22T03:41:45.047Z,1.66
2018-12-22T03:42:16.719Z,1.64
2018-12-22T03:42:49.885Z,1.59
2018-12-22T03:43:21.245Z,1.56
2018-12-22T03:43:52.365Z,1.56
2018-12-22T03:44:23.482Z,1.55
2018-12-22T03:44:54.602Z,1.56
2018-12-22T03:45:25.725Z,1.58
2018-12-22T03:45:56.900Z,1.57
2018-12-22T03:46:28.004Z,1.53
2018-12-22T03:46:59.124Z,1.51
2018-12-22T03:47:30.227Z,1.50
2018-12-22T03:48:01.340Z,1.48
2018-12-22T03:48:32.452Z,1.49
2018-12-22T03:49:03.583Z,1.51
2018-12-22T03:49:34.684Z,1.51
2018-12-22T03:50:05.786Z,1.49
2018-12-22T03:50:36.910Z,1.48
2018-12-22T03:51:08.053Z,1.46
2018-12-22T03:51:39.157Z,1.47
2018-12-22T03:52:10.309Z,1.50
2018-12-22T03:52:41.431Z,1.51
2018-12-22T03:53:12.559Z,1.50
2018-12-22T03:53:43.668Z,1.47
2018-12-22T03:54:15.466Z,1.44
2018-12-22T03:54:46.601Z,1.43
2018-12-22T03:55:17.718Z,1.40
2018-12-22T03:55:48.838Z,1.41
2018-12-22T03:56:19.989Z,1.43
2018-12-22T03:56:51.106Z,1.45
2018-12-22T03:57:22.215Z,1.46
2018-12-22T03:57:53.372Z,1.48
2018-12-22T03:58:24.501Z,1.50
2018-12-22T03:58:55.617Z,1.53
2018-12-22T03:59:26.722Z,1.55
2018-12-22T03:59:57.826Z,1.53
2018-12-22T04:00:28.945Z,1.54
2018-12-22T04:01:00.071Z,1.54
2018-12-22T04:01:31.255Z,1.55
2018-12-22T04:02:02.367Z,1.57
2018-12-22T04:02:33.492Z,1.58
2018-12-22T04:03:04.608Z,1.59
2018-12-22T04:03:35.725Z,1.60
2018-12-22T04:04:06.838Z,1.62
2018-12-22T04:04:37.958Z,1.62
2018-12-22T04:05:09.066Z,1.63
2018-12-22T04:05:40.183Z,1.64
2018-12-22T04:06:11.320Z,1.65
2018-12-22T04:06:42.497Z,1.66
2018-12-22T04:07:13.610Z,1.66
2018-12-22T04:07:44.800Z,1.66
2018-12-22T04:08:15.907Z,1.67
2018-12-22T04:08:47.024Z,1.65
2018-12-22T04:09:18.191Z,1.63
2018-12-22T04:09:49.314Z,1.59
2018-12-22T04:10:20.447Z,1.58
2018-12-22T04:10:51.562Z,1.57
2018-12-22T04:11:22.686Z,1.54
2018-12-22T04:11:53.807Z,1.53
2018-12-22T04:12:24.922Z,1.52
2018-12-22T04:12:56.082Z,1.52
2018-12-22T04:13:27.202Z,1.51
2018-12-22T04:13:58.350Z,1.50
2018-12-22T04:14:29.462Z,1.50
2018-12-22T04:15:00.585Z,1.52
2018-12-22T04:15:31.708Z,1.53
2018-12-22T04:16:02.839Z,1.54
2018-12-22T04:16:33.943Z,1.53
2018-12-22T04:17:05.049Z,1.42
2018-12-22T04:17:36.207Z,1.38
2018-12-22T04:18:07.316Z,1.37
2018-12-22T04:18:38.469Z,1.37
2018-12-22T04:19:09.601Z,1.38
2018-12-22T04:19:40.710Z,1.38
2018-12-22T04:20:11.818Z,1.40
2018-12-22T04:20:42.926Z,1.37
2018-12-22T04:21:14.043Z,1.34
2018-12-22T04:21:45.165Z,1.30
2018-12-22T04:22:16.436Z,1.24
2018-12-22T04:22:47.593Z,1.18
2018-12-22T04:23:18.767Z,1.05
2018-12-22T04:23:49.877Z,0.94
2018-12-22T04:24:20.980Z,0.82
2018-12-22T04:24:52.100Z,0.78
2018-12-22T04:25:23.210Z,0.69
2018-12-22T04:25:54.429Z,0.67
2018-12-22T04:26:25.566Z,0.67
2018-12-22T04:26:56.726Z,0.66
2018-12-22T04:27:27.859Z,0.64
2018-12-22T04:27:58.978Z,0.56
2018-12-22T04:28:30.120Z,0.50
2018-12-22T04:29:01.239Z,0.53
2018-12-22T04:29:34.098Z,0.57
2018-12-22T04:30:05.607Z,0.60
2018-12-22T04:30:36.728Z,0.63
2018-12-22T04:31:07.849Z,0.66
2018-12-22T04:31:38.967Z,0.68
2018-12-22T04:32:10.089Z,0.71
2018-12-22T04:32:41.207Z,0.72
2018-12-22T04:33:13.155Z,0.73
2018-12-22T04:33:45.132Z,0.78
2018-12-22T04:34:16.399Z,0.79
2018-12-22T04:34:47.518Z,-0.84
2018-12-22T04:35:18.626Z,0.83
2018-12-22T04:35:49.743Z,0.84
2018-12-22T04:36:20.853Z,0.84
2018-12-22T04:36:52.034Z,0.84
2018-12-22T04:37:23.149Z,0.82
2018-12-22T04:37:54.248Z,0.83
2018-12-22T04:38:25.363Z,0.83
2018-12-22T04:38:56.473Z,0.84
2018-12-22T04:39:27.612Z,0.86
2018-12-22T04:39:58.723Z,0.85
2018-12-22T04:40:29.843Z,0.88
2018-12-22T04:41:00.965Z,0.90
2018-12-22T04:41:32.081Z,0.91
2018-12-22T04:42:03.203Z,0.93
2018-12-22T04:42:34.316Z,0.96
2018-12-22T04:43:05.451Z,1.01
2018-12-22T04:43:36.617Z,1.05
2018-12-22T04:44:07.725Z,1.07
2018-12-22T04:44:38.861Z,1.09
2018-12-22T04:45:10.008Z,1.12
2018-12-22T04:45:41.782Z,1.12
2018-12-22T04:46:12.892Z,1.14
2018-12-22T04:46:44.009Z,1.15
2018-12-22T04:47:15.133Z,1.14
2018-12-22T04:47:46.243Z,1.05
2018-12-22T04:48:17.346Z,1.04
2018-12-22T04:48:48.492Z,1.07
2018-12-22T04:49:19.609Z,1.03
2018-12-22T04:49:50.823Z,1.03
2018-12-22T04:50:22.022Z,1.02
2018-12-22T04:50:53.206Z,1.04
2018-12-22T04:51:24.330Z,1.01
2018-12-22T04:51:55.444Z,1.02
2018-12-22T04:52:26.602Z,1.01
2018-12-22T04:52:57.709Z,1.03
2018-12-22T04:53:28.831Z,1.04
2018-12-22T04:54:00.063Z,0.98
2018-12-22T04:54:31.265Z,1.05
2018-12-22T04:55:02.418Z,1.08
2018-12-22T04:55:33.628Z,1.13
2018-12-22T04:56:04.768Z,1.14
2018-12-22T04:56:35.876Z,1.16
2018-12-22T04:57:06.996Z,1.19
2018-12-22T04:57:38.105Z,1.19
2018-12-22T04:58:09.209Z,1.18
2018-12-22T04:58:40.314Z,1.20
2018-12-22T04:59:11.416Z,1.23
2018-12-22T04:59:43.203Z,1.23
2018-12-22T05:00:14.670Z,1.23
2018-12-22T05:00:45.813Z,1.24
2018-12-22T05:01:16.926Z,1.24
2018-12-22T05:01:48.033Z,1.24
2018-12-22T05:02:19.171Z,1.25
2018-12-22T05:02:50.289Z,1.25
2018-12-22T05:03:21.419Z,1.22
2018-12-22T05:03:52.556Z,1.23
2018-12-22T05:04:23.659Z,1.24
2018-12-22T05:04:54.769Z,1.24
2018-12-22T05:05:25.872Z,1.29
2018-12-22T05:05:56.996Z,1.32
2018-12-22T05:06:28.115Z,1.33
2018-12-22T05:06:59.226Z,1.32
2018-12-22T05:07:30.384Z,1.32
2018-12-22T05:08:01.535Z,1.34
2018-12-22T05:08:32.658Z,1.37
2018-12-22T05:09:03.794Z,1.38
2018-12-22T05:09:35.007Z,1.39
2018-12-22T05:10:06.110Z,1.40
2018-12-22T05:10:37.345Z,1.39
2018-12-22T05:11:08.467Z,1.39
2018-12-22T05:11:39.641Z,1.38
2018-12-22T05:12:10.755Z,1.37
2018-12-22T05:12:41.902Z,1.40
2018-12-22T05:13:13.005Z,1.38
2018-12-22T05:13:44.117Z,1.36
2018-12-22T05:14:15.229Z,1.35
2018-12-22T05:14:46.328Z,1.34
2018-12-22T05:15:17.448Z,1.35
2018-12-22T05:15:48.553Z,1.39
2018-12-22T05:16:19.663Z,1.42
2018-12-22T05:16:50.772Z,1.40
2018-12-22T05:17:21.885Z,1.41
2018-12-22T05:17:53.030Z,1.43
2018-12-22T05:18:24.138Z,1.43
2018-12-22T05:18:55.240Z,1.44
2018-12-22T05:19:26.366Z,1.43
2018-12-22T05:19:57.464Z,1.42
2018-12-22T05:20:28.570Z,1.44
2018-12-22T05:20:59.696Z,1.44
2018-12-22T05:21:30.815Z,1.44
2018-12-22T05:22:01.936Z,1.43
2018-12-22T05:22:33.042Z,1.44
2018-12-22T05:23:04.207Z,1.44
2018-12-22T05:23:35.426Z,1.42
2018-12-22T05:24:06.541Z,1.40
2018-12-22T05:24:37.643Z,1.34
2018-12-22T05:25:08.746Z,1.34
2018-12-22T05:25:39.845Z,1.29
2018-12-22T05:26:10.981Z,1.27
2018-12-22T05:26:42.092Z,1.30
2018-12-22T05:27:13.210Z,1.30
2018-12-22T05:27:44.359Z,1.32
2018-12-22T05:28:15.469Z,1.28
2018-12-22T05:28:46.586Z,1.32
2018-12-22T05:29:17.744Z,1.32
2018-12-22T05:29:51.997Z,1.34
2018-12-22T05:30:21.993Z,1.35
2018-12-22T05:30:53.149Z,1.37
2018-12-22T05:31:24.334Z,1.38
2018-12-22T05:31:55.447Z,1.37
2018-12-22T05:32:26.545Z,1.36
2018-12-22T05:32:57.656Z,1.41
2018-12-22T05:33:28.774Z,1.42
2018-12-22T05:33:59.876Z,1.41
2018-12-22T05:34:31.021Z,1.44
2018-12-22T05:35:02.136Z,1.43
2018-12-22T05:35:33.253Z,1.42
2018-12-22T05:36:04.359Z,1.41
2018-12-22T05:36:35.470Z,1.44
2018-12-22T05:37:06.665Z,1.42
2018-12-22T05:37:37.776Z,1.39
2018-12-22T05:38:08.880Z,1.42
2018-12-22T05:38:40.085Z,1.43
2018-12-22T05:39:11.190Z,1.46
2018-12-22T05:39:42.312Z,1.46
2018-12-22T05:40:13.413Z,1.43
2018-12-22T05:40:44.529Z,1.42
2018-12-22T05:41:15.632Z,1.38
2018-12-22T05:41:46.731Z,1.37
2018-12-22T05:42:17.853Z,1.37
2018-12-22T05:42:49.017Z,1.37
2018-12-22T05:43:20.132Z,1.37
2018-12-22T05:43:51.276Z,1.40
2018-12-22T05:44:22.387Z,1.36
2018-12-22T05:44:53.531Z,1.36
2018-12-22T05:45:24.635Z,1.37
2018-12-22T05:45:55.748Z,1.36
2018-12-22T05:46:26.871Z,1.36
2018-12-22T05:46:57.975Z,1.37
2018-12-22T05:47:29.104Z,1.37
2018-12-22T05:48:00.215Z,1.35
2018-12-22T05:48:31.342Z,1.34
2018-12-22T05:49:02.504Z,1.34
2018-12-22T05:49:33.603Z,1.36
2018-12-22T05:50:04.728Z,1.36
2018-12-22T05:50:35.844Z,1.38
2018-12-22T05:51:07.021Z,1.40
2018-12-22T05:51:38.198Z,1.40
2018-12-22T05:52:09.307Z,1.40
2018-12-22T05:52:40.412Z,1.41
2018-12-22T05:53:11.516Z,1.42
2018-12-22T05:53:42.672Z,1.41
2018-12-22T05:54:13.781Z,1.41
2018-12-22T05:54:44.900Z,1.42
2018-12-22T05:55:16.006Z,1.43
2018-12-22T05:55:47.123Z,1.42
2018-12-22T05:56:18.237Z,1.44
2018-12-22T05:56:49.376Z,1.42
2018-12-22T05:57:20.494Z,1.43
2018-12-22T05:57:51.656Z,1.41
2018-12-22T05:58:22.769Z,1.41
2018-12-22T05:58:53.887Z,1.42
2018-12-22T05:59:25.007Z,1.39
2018-12-22T06:00:00.459Z,1.38
2018-12-22T06:00:29.314Z,1.39
2018-12-22T06:01:00.464Z,1.39
2018-12-22T06:01:31.568Z,1.37
2018-12-22T06:02:02.685Z,1.35
2018-12-22T06:02:33.794Z,1.34
2018-12-22T06:03:04.904Z,1.34
2018-12-22T06:03:36.009Z,1.36
2018-12-22T06:04:07.115Z,1.39
2018-12-22T06:04:38.231Z,1.43
2018-12-22T06:05:09.342Z,1.43
2018-12-22T06:05:40.482Z,1.35
2018-12-22T06:06:11.630Z,1.31
2018-12-22T06:06:42.759Z,1.26
2018-12-22T06:07:13.869Z,1.25
2018-12-22T06:07:44.989Z,1.22
2018-12-22T06:08:16.098Z,1.23
2018-12-22T06:08:47.201Z,1.23
2018-12-22T06:09:18.308Z,1.24
2018-12-22T06:09:49.412Z,1.26
2018-12-22T06:10:20.520Z,1.28
2018-12-22T06:10:51.638Z,1.30
2018-12-22T06:11:22.872Z,1.33
2018-12-22T06:11:53.988Z,1.34
2018-12-22T06:12:25.104Z,1.37
2018-12-22T06:12:56.211Z,1.41
2018-12-22T06:13:27.312Z,1.42
2018-12-22T06:13:58.533Z,1.42
2018-12-22T06:14:29.654Z,1.41
2018-12-22T06:15:00.767Z,1.39
2018-12-22T06:15:31.904Z,1.38
2018-12-22T06:16:03.004Z,1.39
2018-12-22T06:16:34.148Z,1.41
2018-12-22T06:17:05.261Z,1.41
2018-12-22T06:17:36.372Z,1.39
2018-12-22T06:18:07.486Z,1.38
2018-12-22T06:18:38.596Z,1.36
2018-12-22T06:19:09.750Z,1.36
2018-12-22T06:19:40.855Z,1.34
2018-12-22T06:20:11.964Z,1.35
2018-12-22T06:20:43.111Z,1.34
2018-12-22T06:21:14.215Z,1.36
2018-12-22T06:21:45.364Z,1.36
2018-12-22T06:22:16.521Z,1.37
2018-12-22T06:22:47.640Z,1.35
2018-12-22T06:23:18.765Z,1.34
2018-12-22T06:23:49.881Z,1.34
2018-12-22T06:24:20.989Z,1.35
2018-12-22T06:24:52.136Z,1.37
2018-12-22T06:25:23.257Z,1.37
2018-12-22T06:25:54.366Z,1.40
2018-12-22T06:26:25.472Z,1.42
2018-12-22T06:26:56.603Z,1.42
2018-12-22T06:27:27.755Z,1.39
2018-12-22T06:27:58.904Z,1.40
2018-12-22T06:28:30.011Z,1.40
2018-12-22T06:29:01.121Z,1.40
2018-12-22T06:29:32.220Z,1.41
2018-12-22T06:30:09.041Z,1.43
2018-12-22T06:30:36.487Z,1.43
2018-12-22T06:31:07.605Z,1.44
2018-12-22T06:31:38.710Z,1.48
2018-12-22T06:32:09.817Z,1.50
2018-12-22T06:32:40.966Z,1.51
2018-12-22T06:33:12.088Z,1.53
2018-12-22T06:33:43.196Z,1.55
2018-12-22T06:34:14.305Z,1.53
2018-12-22T06:34:45.404Z,1.54
2018-12-22T06:35:16.509Z,1.54
2018-12-22T06:35:47.612Z,1.59
2018-12-22T06:36:18.717Z,1.62
2018-12-22T06:36:49.850Z,1.63
2018-12-22T06:37:20.965Z,1.66
2018-12-22T06:37:52.111Z,1.66
2018-12-22T06:38:23.226Z,1.61
2018-12-22T06:38:54.326Z,1.52
2018-12-22T06:39:25.430Z,1.49
2018-12-22T06:39:56.546Z,1.49
2018-12-22T06:40:27.670Z,1.50
2018-12-22T06:40:58.785Z,1.50
2018-12-22T06:41:29.900Z,1.52
2018-12-22T06:42:01.049Z,1.52
2018-12-22T06:42:32.180Z,1.48
2018-12-22T06:43:03.287Z,1.46
2018-12-22T06:43:34.400Z,1.45
2018-12-22T06:44:05.503Z,1.46
2018-12-22T06:44:36.612Z,1.47
2018-12-22T06:45:07.729Z,1.47
2018-12-22T06:45:38.832Z,1.49
2018-12-22T06:46:09.925Z,1.50
2018-12-22T06:46:41.027Z,1.50
2018-12-22T06:47:12.172Z,1.52
2018-12-22T06:47:43.282Z,1.54
2018-12-22T06:48:14.392Z,1.56
2018-12-22T06:48:45.502Z,1.55
2018-12-22T06:49:16.616Z,1.55
2018-12-22T06:49:47.721Z,1.55
2018-12-22T06:50:18.839Z,1.57
2018-12-22T06:50:49.961Z,1.58
2018-12-22T06:51:21.096Z,1.58
2018-12-22T06:51:52.236Z,1.59
2018-12-22T06:52:23.396Z,1.64
2018-12-22T06:52:54.514Z,1.71
2018-12-22T06:53:25.617Z,1.75
2018-12-22T06:53:56.731Z,1.75
2018-12-22T06:54:27.859Z,1.76
2018-12-22T06:54:58.973Z,1.71
2018-12-22T06:55:30.078Z,1.71